Time;durP1;ratioP1;P1;durP2;ratioP2;P2;SDS_P1;SDS_P2;PMS_P1;PMS_P2;Temp;Humidity;BMP_temperature;BMP_pressure;BME280_temperature;BME280_humidity;BME280_pressure;Samples;Min_cycle;Max_cycle;Signal;HPM_P1;HPM_P2
2022/04/14 00:01:11;;;;;;;9.90;5.13;;;19.70;64.00;;;;;;5082289;28;20357;-60
2022/04/14 00:03:36;;;;;;;11.80;5.35;;;19.70;64.20;;;;;;5081055;28;20494;-61
2022/04/14 00:06:02;;;;;;;12.75;5.07;;;19.70;64.40;;;;;;5062280;28;20549;-60
2022/04/14 00:08:27;;;;;;;8.48;4.65;;;19.60;64.50;;;;;;5062556;28;20047;-61
2022/04/14 00:10:53;;;;;;;10.68;5.03;;;19.70;64.60;;;;;;5080964;28;20573;-60
2022/04/14 00:13:18;;;;;;;10.52;5.28;;;19.60;64.70;;;;;;5081450;28;20059;-60
2022/04/14 00:15:44;;;;;;;11.95;4.95;;;19.50;64.80;;;;;;5068717;28;20040;-60
2022/04/14 00:18:09;;;;;;;9.93;5.20;;;19.40;64.80;;;;;;5085279;28;20032;-60
2022/04/14 00:20:35;;;;;;;8.05;4.88;;;19.50;65.00;;;;;;5064574;28;20396;-61
2022/04/14 00:23:00;;;;;;;10.45;4.80;;;19.50;65.80;;;;;;5084769;28;20070;-60
2022/04/14 00:25:26;;;;;;;9.00;4.85;;;19.50;65.30;;;;;;5085424;28;20358;-60
2022/04/14 00:27:51;;;;;;;7.55;4.90;;;19.50;65.10;;;;;;5064646;28;20221;-61
2022/04/14 00:30:17;;;;;;;6.07;4.20;;;19.50;65.00;;;;;;5084764;28;20085;-60
2022/04/14 00:32:42;;;;;;;8.80;5.25;;;19.50;65.00;;;;;;5083543;28;20111;-60
2022/04/14 00:35:08;;;;;;;6.15;4.32;;;19.50;65.10;;;;;;5085627;28;20484;-60
2022/04/14 00:37:33;;;;;;;8.60;4.78;;;19.40;65.30;;;;;;5086011;28;20032;-60
2022/04/14 00:39:59;;;;;;;8.10;4.97;;;19.40;65.30;;;;;;5066341;28;20395;-61
2022/04/14 00:42:24;;;;;;;13.15;6.20;;;19.40;65.40;;;;;;5084213;28;20141;-61
2022/04/14 00:44:50;;;;;;;9.68;6.13;;;19.40;65.40;;;;;;5084201;28;20047;-61
2022/04/14 00:47:15;;;;;;;11.20;6.55;;;19.30;65.50;;;;;;5085009;28;20044;-60
2022/04/14 00:49:41;;;;;;;13.50;6.07;;;19.30;65.60;;;;;;5083798;28;20028;-61
2022/04/14 00:52:07;;;;;;;9.73;5.60;;;19.30;65.70;;;;;;5065840;28;20044;-61
2022/04/14 00:54:33;;;;;;;12.07;6.15;;;19.20;65.80;;;;;;5067097;28;20020;-61
2022/04/14 00:56:58;;;;;;;17.25;6.63;;;19.20;65.90;;;;;;5050724;28;20454;-61
2022/04/14 00:59:24;;;;;;;11.35;6.22;;;19.20;66.00;;;;;;5066869;28;20384;-61
2022/04/14 01:01:50;;;;;;;13.93;6.70;;;19.10;66.20;;;;;;5066229;28;20024;-60
2022/04/14 01:04:15;;;;;;;12.05;6.15;;;19.10;66.30;;;;;;5084509;28;20398;-60
2022/04/14 01:06:41;;;;;;;11.50;5.60;;;19.10;66.30;;;;;;5048068;28;20062;-60
2022/04/14 01:09:16;;;;;;;12.07;6.13;;;19.10;66.40;;;;;;5081903;28;20038;-61
2022/04/14 01:11:52;;;;;;;11.90;5.93;;;19.00;66.40;;;;;;5066617;28;20507;-61
2022/04/14 01:14:18;;;;;;;;;;;19.00;66.40;;;;;;5081780;28;20032;-61
2022/04/14 01:16:44;;;;;;;10.50;5.70;;;19.00;66.50;;;;;;5084179;28;19954;-61
2022/04/14 01:19:09;;;;;;;9.63;5.40;;;19.00;66.50;;;;;;5082295;28;20059;-61
2022/04/14 01:21:35;;;;;;;7.78;5.40;;;18.90;66.70;;;;;;5064221;28;20115;-61
2022/04/14 01:24:01;;;;;;;8.55;5.50;;;18.90;66.70;;;;;;5084599;28;20379;-61
2022/04/14 01:26:27;;;;;;;10.35;5.35;;;18.90;66.80;;;;;;5064355;28;20024;-61
2022/04/14 01:28:52;;;;;;;11.40;5.72;;;18.80;66.90;;;;;;5079682;28;20071;-60
2022/04/14 01:31:18;;;;;;;10.82;5.78;;;18.80;67.00;;;;;;5079470;28;20496;-61
2022/04/14 01:33:43;;;;;;;10.07;5.40;;;18.80;67.00;;;;;;5061738;28;20072;-61
2022/04/14 01:36:09;;;;;;;8.07;5.25;;;18.80;67.10;;;;;;5063957;28;20206;-61
2022/04/14 01:38:34;;;;;;;12.55;4.90;;;18.70;67.20;;;;;;5062544;28;20115;-60
2022/04/14 01:41:00;;;;;;;11.70;5.53;;;18.70;67.30;;;;;;5025831;28;20039;-61
2022/04/14 01:43:26;;;;;;;14.27;5.22;;;18.70;67.30;;;;;;5060185;28;20044;-62
2022/04/14 01:45:51;;;;;;;12.27;5.35;;;18.70;67.40;;;;;;5065310;28;20031;-60
2022/04/14 01:48:17;;;;;;;13.27;5.32;;;18.60;67.40;;;;;;5062855;28;20948;-61
2022/04/14 01:50:43;;;;;;;14.07;5.40;;;18.60;67.50;;;;;;5063090;28;20028;-61
2022/04/14 01:53:09;;;;;;;11.50;5.10;;;18.20;67.40;;;;;;5028176;28;20040;-61
2022/04/14 01:55:34;;;;;;;14.43;5.32;;;18.50;67.70;;;;;;5044962;28;20048;-61
2022/04/14 01:58:00;;;;;;;15.60;4.63;;;18.50;67.80;;;;;;5044040;28;20048;-61
2022/04/14 02:00:25;;;;;;;7.72;4.75;;;18.50;67.90;;;;;;5027353;28;20328;-61
2022/04/14 02:02:51;;;;;;;11.60;4.55;;;18.50;68.00;;;;;;5044120;28;20275;-61
2022/04/14 02:05:16;;;;;;;13.40;4.40;;;18.40;68.10;;;;;;5063368;28;20047;-60
2022/04/14 02:07:42;;;;;;;16.70;5.25;;;18.40;68.10;;;;;;5062444;28;20184;-62
2022/04/14 02:10:08;;;;;;;15.00;4.90;;;18.30;68.10;;;;;;5046494;28;20028;-61
2022/04/14 02:12:34;;;;;;;10.00;5.38;;;18.40;68.10;;;;;;5045244;28;20392;-61
2022/04/14 02:15:00;;;;;;;15.73;5.55;;;18.30;68.20;;;;;;5043691;28;20069;-61
2022/04/14 02:17:25;;;;;;;11.18;4.80;;;18.30;68.30;;;;;;5062309;28;20139;-62
2022/04/14 02:19:51;;;;;;;18.17;5.35;;;18.30;68.30;;;;;;5060682;28;20154;-61
2022/04/14 02:22:18;;;;;;;18.02;4.93;;;18.20;68.40;;;;;;5026604;28;20075;-61
2022/04/14 02:24:44;;;;;;;11.75;4.85;;;18.20;68.50;;;;;;5062193;28;20044;-61
2022/04/14 02:27:09;;;;;;;19.50;5.50;;;18.20;68.50;;;;;;5062758;28;20484;-61
2022/04/14 02:29:35;;;;;;;11.32;5.43;;;18.20;68.60;;;;;;5044149;28;20030;-60
2022/04/14 02:32:00;;;;;;;20.80;5.03;;;18.10;68.70;;;;;;5054154;28;20052;-61
2022/04/14 02:34:26;;;;;;;17.20;4.95;;;18.10;68.70;;;;;;5084551;28;20111;-61
2022/04/14 02:36:52;;;;;;;14.68;4.55;;;18.10;68.80;;;;;;5081784;28;20024;-60
2022/04/14 02:39:18;;;;;;;15.35;5.28;;;18.10;68.90;;;;;;5081201;28;20426;-60
2022/04/14 02:41:43;;;;;;;22.05;6.00;;;18.10;68.90;;;;;;5079377;28;20032;-60
2022/04/14 02:44:09;;;;;;;15.43;4.53;;;18.00;68.90;;;;;;5081643;28;20040;-60
2022/04/14 02:46:34;;;;;;;11.05;5.28;;;18.10;69.10;;;;;;5082267;28;20020;-60
2022/04/14 02:49:00;;;;;;;14.25;5.03;;;18.00;69.00;;;;;;5079968;28;20416;-60
2022/04/14 02:51:25;;;;;;;18.48;5.15;;;17.90;69.10;;;;;;5080202;28;20040;-61
2022/04/14 02:53:51;;;;;;;14.18;4.50;;;17.90;69.30;;;;;;5061427;28;20028;-62
2022/04/14 02:56:16;;;;;;;15.02;4.47;;;17.90;69.40;;;;;;5064202;28;20024;-60
2022/04/14 02:58:42;;;;;;;13.57;4.00;;;17.90;69.50;;;;;;5081615;28;20028;-60
2022/04/14 03:01:07;;;;;;;15.40;4.18;;;17.90;69.50;;;;;;5063156;28;20030;-60
2022/04/14 03:03:33;;;;;;;9.95;4.60;;;17.80;69.70;;;;;;5082004;28;20039;-60
2022/04/14 03:05:59;;;;;;;10.05;3.85;;;17.80;69.80;;;;;;5080377;28;20037;-60
2022/04/14 03:08:24;;;;;;;12.85;4.75;;;17.80;69.90;;;;;;5080295;28;20059;-61
2022/04/14 03:10:50;;;;;;;8.73;3.88;;;17.80;69.90;;;;;;5080337;28;20460;-61
2022/04/14 03:13:16;;;;;;;8.60;4.05;;;17.70;69.90;;;;;;5077187;28;20036;-61
2022/04/14 03:15:42;;;;;;;12.70;3.90;;;17.70;70.10;;;;;;5080938;28;20056;-61
2022/04/14 03:18:07;;;;;;;8.30;3.83;;;17.70;70.10;;;;;;5083349;28;20414;-59
2022/04/14 03:20:33;;;;;;;7.00;3.58;;;17.70;70.30;;;;;;5080791;28;20496;-60
2022/04/14 03:22:58;;;;;;;14.93;4.00;;;17.60;70.30;;;;;;5064129;28;20038;-61
2022/04/14 03:25:24;;;;;;;14.63;3.97;;;17.60;70.50;;;;;;5080846;28;20050;-60
2022/04/14 03:27:49;;;;;;;13.38;3.40;;;17.60;70.40;;;;;;5080538;28;20131;-62
2022/04/14 03:30:15;;;;;;;7.18;3.70;;;17.60;70.40;;;;;;5063165;28;20044;-61
2022/04/14 03:32:44;;;;;;;8.82;3.47;;;17.50;70.50;;;;;;5047201;28;20066;-59
2022/04/14 03:35:11;;;;;;;8.70;3.33;;;17.50;70.60;;;;;;5046497;28;20055;-60
2022/04/14 03:37:36;;;;;;;7.38;3.50;;;17.40;70.80;;;;;;5080676;28;20151;-60
2022/04/14 03:40:03;;;;;;;7.40;3.00;;;17.40;70.90;;;;;;5060759;28;20123;-60
2022/04/14 03:42:29;;;;;;;6.00;3.00;;;17.40;71.00;;;;;;5082101;28;20020;-61
2022/04/14 03:44:54;;;;;;;12.45;3.70;;;17.30;70.90;;;;;;5081378;28;20032;-60
2022/04/14 03:47:20;;;;;;;8.93;3.38;;;17.30;70.90;;;;;;5080898;28;20514;-61
2022/04/14 03:49:45;;;;;;;8.35;3.65;;;17.30;71.00;;;;;;5082624;28;20032;-60
2022/04/14 03:52:11;;;;;;;7.85;3.40;;;17.30;71.00;;;;;;5066907;28;20416;-60
2022/04/14 03:54:36;;;;;;;8.68;3.28;;;17.30;71.10;;;;;;5085274;28;20031;-60
2022/04/14 03:57:02;;;;;;;9.52;3.03;;;17.30;71.10;;;;;;5083315;28;20083;-60
2022/04/14 03:59:27;;;;;;;5.28;3.10;;;17.20;71.20;;;;;;5065416;28;20103;-60
2022/04/14 04:01:53;;;;;;;6.07;3.20;;;17.20;71.20;;;;;;5086179;28;20168;-61
2022/04/14 04:04:18;;;;;;;7.75;3.50;;;17.20;71.20;;;;;;5085334;28;20476;-60
2022/04/14 04:06:45;;;;;;;5.30;2.92;;;17.20;71.30;;;;;;5085245;28;20036;-59
2022/04/14 04:09:11;;;;;;;6.22;3.22;;;17.20;71.40;;;;;;5067094;28;20125;-61
2022/04/14 04:11:36;;;;;;;6.63;3.22;;;17.10;71.40;;;;;;5063672;28;20147;-60
2022/04/14 04:14:02;;;;;;;4.55;2.75;;;17.10;71.50;;;;;;5083901;28;20054;-61
2022/04/14 04:16:27;;;;;;;9.48;2.83;;;17.10;71.60;;;;;;5084261;28;20059;-60
2022/04/14 04:18:53;;;;;;;6.95;2.72;;;17.00;71.50;;;;;;5066237;28;20099;-62
2022/04/14 04:21:18;;;;;;;6.22;2.85;;;17.00;72.30;;;;;;5032708;28;20371;-61
2022/04/14 04:23:44;;;;;;;6.60;3.00;;;17.00;71.60;;;;;;5066167;28;20073;-60
2022/04/14 04:26:09;;;;;;;9.55;2.88;;;17.00;71.70;;;;;;5084827;28;20036;-61
2022/04/14 04:28:35;;;;;;;5.30;2.78;;;16.90;71.80;;;;;;5085583;28;20036;-61
2022/04/14 04:31:00;;;;;;;10.07;2.97;;;16.90;71.90;;;;;;5084965;28;20032;-61
2022/04/14 04:33:26;;;;;;;6.70;2.53;;;16.90;72.00;;;;;;5082594;28;20036;-61
2022/04/14 04:35:52;;;;;;;11.50;3.80;;;16.80;72.00;;;;;;5066694;28;20383;-60
2022/04/14 04:38:17;;;;;;;39.25;5.25;;;16.80;72.10;;;;;;5045658;28;20440;-60
2022/04/14 04:40:43;;;;;;;133.15;12.93;;;16.80;72.10;;;;;;5065827;28;20390;-60
2022/04/14 04:43:09;;;;;;;231.52;19.25;;;16.80;72.20;;;;;;5083026;28;20035;-60
2022/04/14 04:45:37;;;;;;;215.60;18.63;;;16.80;72.20;;;;;;5065601;28;20148;-61
2022/04/14 04:48:04;;;;;;;172.27;17.05;;;16.80;72.20;;;;;;5085562;28;20027;-59
2022/04/14 04:50:30;;;;;;;216.10;21.27;;;16.80;72.30;;;;;;5084744;28;20059;-60
2022/04/14 04:52:55;;;;;;;179.65;15.77;;;16.70;72.30;;;;;;5085704;28;20459;-59
2022/04/14 04:55:21;;;;;;;151.82;15.43;;;16.70;72.40;;;;;;5066194;28;20253;-60
2022/04/14 04:57:46;;;;;;;134.55;13.75;;;16.70;72.50;;;;;;5083308;28;20063;-60
2022/04/14 05:00:12;;;;;;;149.57;15.13;;;16.70;72.60;;;;;;5064612;28;20036;-59
2022/04/14 05:02:38;;;;;;;136.13;12.02;;;16.60;72.60;;;;;;5065878;28;20071;-61
2022/04/14 05:05:04;;;;;;;116.70;13.38;;;16.60;72.70;;;;;;5065569;28;20026;-61
2022/04/14 05:07:29;;;;;;;108.78;11.27;;;16.60;72.80;;;;;;5065347;28;20260;-61
2022/04/14 05:09:55;;;;;;;94.97;11.40;;;16.60;72.90;;;;;;5084112;28;20028;-60
2022/04/14 05:12:20;;;;;;;86.13;10.27;;;16.50;72.90;;;;;;5065071;28;20392;-60
2022/04/14 05:14:46;;;;;;;86.13;9.98;;;16.50;73.10;;;;;;5064874;28;20032;-60
2022/04/14 05:17:12;;;;;;;84.95;9.63;;;16.50;73.10;;;;;;5083791;28;20730;-60
2022/04/14 05:19:37;;;;;;;68.00;9.38;;;16.50;73.10;;;;;;5063158;28;20035;-61
2022/04/14 05:22:03;;;;;;;70.30;8.30;;;16.50;73.10;;;;;;5081304;28;20031;-61
2022/04/14 05:24:30;;;;;;;56.35;10.00;;;16.50;73.30;;;;;;5065326;28;20063;-60
2022/04/14 05:26:55;;;;;;;72.78;8.80;;;16.50;73.30;;;;;;5049289;28;20024;-60
2022/04/14 05:29:21;;;;;;;76.43;8.93;;;16.50;73.10;;;;;;5082914;28;20040;-61
2022/04/14 05:31:46;;;;;;;68.38;9.27;;;16.50;73.20;;;;;;5078909;28;20056;-60
2022/04/14 05:34:12;;;;;;;63.78;8.38;;;16.40;73.20;;;;;;5031816;28;20040;-60
2022/04/14 05:36:37;;;;;;;64.15;8.60;;;16.40;73.40;;;;;;5066697;28;20033;-59
2022/04/14 05:39:03;;;;;;;69.43;8.82;;;16.40;73.70;;;;;;5070479;28;20476;-61
2022/04/14 05:41:28;;;;;;;60.03;7.93;;;16.30;73.70;;;;;;5056998;28;20115;-61
2022/04/14 05:43:55;;;;;;;59.13;8.32;;;16.40;73.70;;;;;;5059691;28;20024;-60
2022/04/14 05:46:20;;;;;;;54.25;7.88;;;16.30;73.70;;;;;;5038523;28;20033;-59
2022/04/14 05:48:46;;;;;;;30.17;6.60;;;16.30;73.70;;;;;;5060815;28;20055;-61
2022/04/14 05:51:11;;;;;;;54.08;7.82;;;16.30;74.00;;;;;;5059319;28;20063;-60
2022/04/14 05:53:37;;;;;;;45.58;7.03;;;16.30;74.00;;;;;;5055673;28;20832;-60
2022/04/14 05:56:02;;;;;;;42.95;6.93;;;16.30;74.50;;;;;;5058609;28;20121;-59
2022/04/14 05:58:28;;;;;;;40.35;6.72;;;16.30;74.70;;;;;;5044430;28;20036;-60
2022/04/14 06:00:53;;;;;;;38.15;7.03;;;16.30;74.40;;;;;;5064008;28;20483;-59
2022/04/14 06:03:19;;;;;;;36.13;6.15;;;16.30;74.50;;;;;;5062657;28;20024;-61
2022/04/14 06:05:45;;;;;;;33.88;7.05;;;16.30;74.50;;;;;;5023673;28;20047;-60
2022/04/14 06:08:10;;;;;;;46.53;6.88;;;16.30;74.60;;;;;;5039722;28;20127;-60
2022/04/14 06:10:36;;;;;;;40.83;6.55;;;16.20;74.70;;;;;;5055599;28;20512;-60
2022/04/14 06:13:02;;;;;;;37.92;6.40;;;16.20;74.90;;;;;;5038500;28;20101;-60
2022/04/14 06:15:27;;;;;;;27.30;6.28;;;16.20;75.00;;;;;;5039849;28;20028;-60
2022/04/14 06:17:53;;;;;;;34.88;5.72;;;16.20;75.00;;;;;;5024770;28;20566;-60
2022/04/14 06:20:18;;;;;;;31.52;6.30;;;16.20;75.00;;;;;;5026160;28;20025;-63
2022/04/14 06:22:44;;;;;;;28.10;5.72;;;16.20;75.10;;;;;;5059029;28;20087;-60
2022/04/14 06:25:17;;;;;;;26.23;6.70;;;16.20;75.10;;;;;;5041337;28;20131;-59
2022/04/14 06:27:43;;;;;;;25.83;6.40;;;16.20;75.20;;;;;;5025399;28;20032;-60
2022/04/14 06:30:09;;;;;;;43.50;6.25;;;16.20;75.20;;;;;;5041311;28;20028;-60
2022/04/14 06:32:35;;;;;;;29.65;7.93;;;16.20;75.40;;;;;;5018314;28;20108;-60
2022/04/14 06:35:01;;;;;;;47.17;8.10;;;16.20;75.30;;;;;;5038637;28;20375;-60
2022/04/14 06:37:27;;;;;;;43.85;7.72;;;16.20;75.50;;;;;;5024145;28;20048;-60
2022/04/14 06:39:52;;;;;;;27.40;6.65;;;16.20;75.40;;;;;;5038542;28;20402;-60
2022/04/14 06:42:21;;;;;;;25.10;6.65;;;16.20;75.40;;;;;;5055514;28;20032;-60
2022/04/14 06:44:47;;;;;;;29.55;6.80;;;16.20;75.40;;;;;;5020997;28;20036;-59
2022/04/14 06:47:13;;;;;;;35.25;6.85;;;16.20;75.50;;;;;;5057585;28;20026;-60
2022/04/14 06:49:38;;;;;;;41.22;7.20;;;16.20;75.50;;;;;;5055500;28;20028;-60
2022/04/14 06:52:04;;;;;;;29.20;6.72;;;16.20;75.50;;;;;;5031213;28;20087;-61
2022/04/14 06:54:30;;;;;;;34.35;6.88;;;16.20;75.50;;;;;;5037019;28;20024;-60
2022/04/14 06:56:55;;;;;;;41.20;7.18;;;16.20;75.60;;;;;;5049646;28;20052;-60
2022/04/14 06:59:20;;;;;;;29.83;7.43;;;16.20;75.80;;;;;;5053592;28;20048;-60
2022/04/14 07:01:46;;;;;;;42.30;7.43;;;16.20;76.10;;;;;;5039965;28;20033;-60
2022/04/14 07:04:11;;;;;;;46.25;7.55;;;16.20;76.10;;;;;;5037050;28;20134;-61
2022/04/14 07:06:37;;;;;;;61.05;8.23;;;16.30;76.60;;;;;;5038204;28;20178;-60
2022/04/14 07:09:02;;;;;;;62.83;9.38;;;16.30;76.50;;;;;;5054706;28;20544;-61
2022/04/14 07:11:28;;;;;;;54.03;9.10;;;16.30;76.80;;;;;;5041435;28;20021;-60
2022/04/14 07:13:53;;;;;;;57.35;8.90;;;16.30;76.90;;;;;;5060012;28;20040;-60
2022/04/14 07:16:19;;;;;;;47.00;8.50;;;16.30;76.70;;;;;;5038949;28;20023;-59
2022/04/14 07:18:44;;;;;;;49.55;8.48;;;16.30;76.40;;;;;;5050095;28;20163;-59
2022/04/14 07:21:10;;;;;;;46.22;8.30;;;16.30;76.50;;;;;;5038872;28;20703;-59
2022/04/14 07:23:36;;;;;;;64.13;9.07;;;16.30;76.70;;;;;;5039012;28;20044;-60
2022/04/14 07:26:01;;;;;;;46.88;8.10;;;16.30;76.70;;;;;;5040179;28;20025;-60
2022/04/14 07:28:27;;;;;;;47.97;8.32;;;16.30;76.70;;;;;;5023795;28;20060;-60
2022/04/14 07:30:52;;;;;;;57.40;9.02;;;16.30;76.70;;;;;;5058226;28;20120;-61
2022/04/14 07:33:18;;;;;;;65.85;8.88;;;16.30;77.00;;;;;;5042698;28;20060;-60
2022/04/14 07:35:45;;;;;;;82.40;10.48;;;16.40;77.00;;;;;;5054822;28;20089;-62
2022/04/14 07:38:11;;;;;;;73.55;10.00;;;16.30;76.70;;;;;;5058085;28;20536;-60
2022/04/14 07:40:36;;;;;;;52.20;8.90;;;16.30;76.70;;;;;;5056177;28;20064;-61
2022/04/14 07:43:02;;;;;;;54.20;9.30;;;16.30;76.70;;;;;;5040362;28;20840;-59
2022/04/14 07:45:28;;;;;;;54.92;9.57;;;16.30;76.90;;;;;;5055412;28;20838;-61
2022/04/14 07:47:53;;;;;;;49.97;8.90;;;16.40;77.10;;;;;;5041014;28;20043;-60
2022/04/14 07:50:19;;;;;;;57.15;9.88;;;16.40;77.00;;;;;;5076734;28;20035;-61
2022/04/14 07:52:46;;;;;;;54.47;9.20;;;16.40;76.80;;;;;;5073573;28;20036;-59
2022/04/14 07:55:11;;;;;;;47.40;9.52;;;16.40;76.90;;;;;;5055199;28;20141;-60
2022/04/14 07:57:37;;;;;;;55.03;9.23;;;16.40;76.90;;;;;;5044608;28;20558;-61
2022/04/14 08:00:05;;;;;;;41.72;8.32;;;16.40;76.80;;;;;;5047317;28;20032;-60
2022/04/14 08:02:30;;;;;;;46.25;8.70;;;16.50;77.00;;;;;;5067593;28;20032;-60
2022/04/14 08:04:56;;;;;;;57.28;8.68;;;16.50;76.90;;;;;;5068294;28;21634;-60
2022/04/14 08:07:21;;;;;;;42.85;7.95;;;16.50;77.00;;;;;;5076389;28;20463;-60
2022/04/14 08:09:47;;;;;;;41.47;8.30;;;16.50;77.00;;;;;;5069504;28;20181;-59
2022/04/14 08:12:14;;;;;;;38.90;8.05;;;16.50;77.20;;;;;;5074684;28;20062;-60
2022/04/14 08:14:39;;;;;;;40.92;8.25;;;16.50;77.20;;;;;;5053936;28;20024;-63
2022/04/14 08:17:05;;;;;;;33.63;7.10;;;16.50;77.10;;;;;;5055502;28;20037;-60
2022/04/14 08:19:34;;;;;;;34.50;6.78;;;16.60;77.20;;;;;;5039124;28;20028;-60
2022/04/14 08:22:00;;;;;;;47.22;8.45;;;16.60;77.20;;;;;;5076466;28;20097;-60
2022/04/14 08:24:25;;;;;;;50.10;8.23;;;16.60;77.10;;;;;;5076581;28;20452;-60
2022/04/14 08:26:52;;;;;;;46.00;8.15;;;16.60;77.10;;;;;;5059604;28;20028;-60
2022/04/14 08:29:17;;;;;;;70.30;10.02;;;16.60;77.20;;;;;;5066672;28;20040;-60
2022/04/14 08:31:43;;;;;;;70.43;9.68;;;16.60;77.30;;;;;;5073491;28;20067;-60
2022/04/14 08:34:09;;;;;;;61.72;8.18;;;16.60;77.40;;;;;;5055151;28;20033;-60
2022/04/14 08:36:35;;;;;;;66.18;8.57;;;16.70;77.10;;;;;;5078713;28;20580;-61
2022/04/14 08:39:01;;;;;;;63.20;9.10;;;16.70;76.80;;;;;;5078777;28;20040;-60
2022/04/14 08:41:29;;;;;;;52.38;8.02;;;16.70;76.80;;;;;;5060370;28;20471;-60
2022/04/14 08:44:02;;;;;;;71.35;7.72;;;16.70;76.70;;;;;;5080349;28;20072;-61
2022/04/14 08:46:28;;;;;;;58.50;8.52;;;16.70;76.60;;;;;;5050207;28;20028;-60
2022/04/14 08:48:55;;;;;;;38.92;7.45;;;16.80;76.70;;;;;;5074568;28;20051;-61
2022/04/14 08:51:20;;;;;;;60.58;9.43;;;16.80;76.50;;;;;;5075102;28;20048;-61
2022/04/14 08:53:47;;;;;;;62.22;9.02;;;16.90;76.80;;;;;;5059871;28;20128;-61
2022/04/14 08:56:12;;;;;;;62.13;9.95;;;16.90;77.20;;;;;;5049708;28;20208;-61
2022/04/14 08:58:38;;;;;;;60.60;9.68;;;16.90;77.20;;;;;;5034028;28;20427;-61
2022/04/14 09:01:04;;;;;;;88.18;12.82;;;16.90;77.30;;;;;;5029136;28;20348;-61
2022/04/14 09:03:31;;;;;;;68.35;9.57;;;16.90;77.00;;;;;;5053721;28;20397;-61
2022/04/14 09:05:57;;;;;;;98.15;13.85;;;16.90;76.90;;;;;;5055505;28;20442;-60
2022/04/14 09:08:23;;;;;;;64.63;10.05;;;16.90;77.40;;;;;;5074590;28;20352;-61
2022/04/14 09:10:49;;;;;;;72.57;10.35;;;17.00;76.80;;;;;;5072923;28;20038;-59
2022/04/14 09:13:14;;;;;;;72.15;10.05;;;17.00;76.70;;;;;;5059923;28;20117;-60
2022/04/14 09:15:40;;;;;;;61.55;10.25;;;17.00;76.50;;;;;;5056388;28;20028;-60
2022/04/14 09:18:06;;;;;;;58.80;10.20;;;17.00;76.50;;;;;;5042903;28;20232;-60
2022/04/14 09:20:39;;;;;;;82.43;10.80;;;17.00;76.50;;;;;;5058850;28;20039;-60
2022/04/14 09:23:21;;;;;;;77.45;10.35;;;17.10;76.60;;;;;;5059313;28;20462;-60
2022/04/14 09:25:59;;;;;;;60.28;9.73;;;17.00;76.80;;;;;;5057469;28;20055;-60
2022/04/14 09:28:25;;;;;;;60.03;10.13;;;17.10;76.60;;;;;;5060517;28;20058;-60
2022/04/14 09:31:04;;;;;;;137.30;17.42;;;17.20;76.60;;;;;;5059019;28;20115;-60
2022/04/14 09:33:33;;;;;;;118.18;14.98;;;17.20;76.70;;;;;;5061899;28;20110;-61
2022/04/14 09:36:10;;;;;;;95.63;12.35;;;17.20;76.60;;;;;;5059304;28;20064;-60
2022/04/14 09:38:55;;;;;;;102.38;13.27;;;17.20;76.70;;;;;;5058946;28;20631;-61
2022/04/14 09:41:34;;;;;;;97.55;13.30;;;17.20;76.70;;;;;;5073802;28;20098;-61
2022/04/14 09:44:10;;;;;;;70.03;11.27;;;17.30;76.80;;;;;;5065159;28;20581;-61
2022/04/14 09:46:45;;;;;;;114.30;11.82;;;17.30;77.00;;;;;;5055720;28;20114;-61
2022/04/14 09:49:12;;;;;;;109.43;12.93;;;17.30;76.80;;;;;;5039849;28;20484;-60
2022/04/14 09:51:42;;;;;;;88.93;12.43;;;17.40;76.70;;;;;;5080118;28;20177;-60
2022/04/14 09:54:15;;;;;;;70.05;12.38;;;17.40;76.80;;;;;;5056018;28;20164;-61
2022/04/14 09:56:44;;;;;;;79.70;11.05;;;17.40;77.00;;;;;;5044997;28;20044;-61
2022/04/14 09:59:11;;;;;;;77.70;11.25;;;17.50;77.00;;;;;;5078311;28;20162;-60
2022/04/14 10:01:36;;;;;;;64.97;9.55;;;17.50;76.80;;;;;;5056049;28;20277;-63
2022/04/14 10:04:03;;;;;;;50.42;8.15;;;17.50;76.90;;;;;;5078049;28;20023;-60
2022/04/14 10:06:29;;;;;;;65.28;9.65;;;17.50;77.20;;;;;;5040036;28;20042;-60
2022/04/14 10:08:55;;;;;;;55.42;8.88;;;17.60;77.30;;;;;;5061257;28;20108;-60
2022/04/14 10:11:25;;;;;;;68.60;10.25;;;17.60;77.00;;;;;;5077293;28;20103;-61
2022/04/14 10:13:50;;;;;;;48.08;8.02;;;17.60;76.90;;;;;;5068086;28;20628;-61
2022/04/14 10:16:20;;;;;;;46.03;7.93;;;17.60;76.80;;;;;;5059001;28;20039;-62
2022/04/14 10:18:46;;;;;;;44.63;8.20;;;17.60;77.00;;;;;;5056272;28;20047;-61
2022/04/14 10:21:12;;;;;;;49.70;8.65;;;17.70;77.10;;;;;;5060685;28;20028;-61
2022/04/14 10:23:37;;;;;;;45.13;7.60;;;17.70;76.80;;;;;;5082203;28;20457;-60
2022/04/14 10:26:03;;;;;;;44.10;7.15;;;17.70;76.90;;;;;;5062544;28;20062;-60
2022/04/14 10:28:28;;;;;;;53.13;9.02;;;17.80;76.80;;;;;;5079541;28;20407;-60
2022/04/14 10:30:55;;;;;;;38.38;6.95;;;17.80;76.70;;;;;;5046559;28;20032;-60
2022/04/14 10:33:21;;;;;;;32.83;7.53;;;17.80;76.70;;;;;;5058511;28;20055;-60
2022/04/14 10:35:46;;;;;;;52.85;7.50;;;17.90;76.70;;;;;;5040706;28;20032;-60
2022/04/14 10:38:33;;;;;;;49.20;8.50;;;17.90;76.40;;;;;;5062785;28;20172;-60
2022/04/14 10:41:19;;;;;;;55.80;9.20;;;18.00;76.30;;;;;;5073546;28;20088;-61
2022/04/14 10:43:45;;;;;;;76.97;10.40;;;18.00;76.10;;;;;;5057237;28;20028;-60
2022/04/14 10:46:14;;;;;;;51.65;7.75;;;18.10;76.30;;;;;;5034303;28;20610;-60
2022/04/14 10:48:40;;;;;;;56.03;7.85;;;18.10;75.90;;;;;;5057995;28;20436;-61
2022/04/14 10:51:27;;;;;;;34.35;7.20;;;18.10;75.90;;;;;;5059871;28;20057;-61
2022/04/14 10:53:57;;;;;;;48.72;8.98;;;18.20;76.00;;;;;;5062308;28;20416;-60
2022/04/14 10:56:52;;;;;;;38.13;8.15;;;18.20;75.60;;;;;;5060259;28;20039;-61
2022/04/14 10:59:51;;;;;;;74.68;8.95;;;18.30;75.60;;;;;;5045827;28;20048;-61
2022/04/14 11:02:17;;;;;;;65.18;11.05;;;18.20;74.80;;;;;;5016119;28;20032;-61
2022/04/14 11:04:43;;;;;;;83.88;10.23;;;18.40;74.80;;;;;;5032025;28;20505;-60
2022/04/14 11:07:15;;;;;;;68.05;9.85;;;18.50;74.80;;;;;;5076735;28;20028;-61
2022/04/14 11:09:47;;;;;;;50.85;8.80;;;18.50;74.50;;;;;;5051442;28;20039;-61
2022/04/14 11:12:14;;;;;;;61.28;10.32;;;18.60;74.20;;;;;;5071840;28;20102;-60
2022/04/14 11:14:46;;;;;;;61.80;9.65;;;18.60;74.00;;;;;;5047755;28;20475;-61
2022/04/14 11:17:30;;;;;;;54.67;8.40;;;18.70;74.10;;;;;;5050835;28;20038;-61
2022/04/14 11:20:11;;;;;;;77.28;11.23;;;18.70;73.50;;;;;;5072630;28;20089;-61
2022/04/14 11:23:08;;;;;;;70.93;9.85;;;18.80;73.30;;;;;;5074263;28;20044;-60
2022/04/14 11:25:54;;;;;;;63.58;9.48;;;18.90;73.10;;;;;;5051721;28;20032;-60
2022/04/14 11:28:33;;;;;;;62.13;10.90;;;18.90;72.70;;;;;;5041384;28;20032;-60
2022/04/14 11:31:22;;;;;;;72.53;10.43;;;19.00;72.40;;;;;;5047478;28;20043;-60
2022/04/14 11:33:48;;;;;;;83.40;11.68;;;19.10;72.40;;;;;;5022585;28;20054;-61
2022/04/14 11:36:13;;;;;;;62.53;11.25;;;19.10;72.00;;;;;;5042210;28;20468;-61
2022/04/14 11:38:52;;;;;;;73.60;10.32;;;19.20;71.70;;;;;;5074161;28;20052;-61
2022/04/14 11:41:49;;;;;;;100.00;12.57;;;19.30;71.70;;;;;;5050772;28;20020;-63
2022/04/14 11:44:20;;;;;;;78.43;11.43;;;19.30;71.60;;;;;;5042823;28;20036;-62
2022/04/14 11:46:49;;;;;;;82.72;12.18;;;19.40;71.30;;;;;;5049992;28;20081;-62
2022/04/14 11:49:21;;;;;;;66.03;10.00;;;19.50;71.20;;;;;;5046856;28;20017;-60
2022/04/14 11:51:48;;;;;;;94.70;12.30;;;19.50;70.80;;;;;;5044183;28;20025;-60
2022/04/14 11:54:18;;;;;;;168.38;21.08;;;19.60;70.60;;;;;;5050195;28;20024;-61
2022/04/14 11:56:52;;;;;;;155.82;18.23;;;19.70;71.00;;;;;;5042975;28;20028;-60
2022/04/14 11:59:19;;;;;;;93.80;13.13;;;19.80;71.10;;;;;;5069493;28;20024;-60
2022/04/14 12:01:51;;;;;;;87.10;11.00;;;19.90;70.60;;;;;;5054358;28;20016;-60
2022/04/14 12:04:17;;;;;;;83.90;12.02;;;19.90;70.40;;;;;;5060031;28;21062;-61
2022/04/14 12:06:55;;;;;;;80.00;11.15;;;20.00;70.40;;;;;;5049774;28;20107;-59
2022/04/14 12:09:21;;;;;;;96.00;12.90;;;20.00;70.40;;;;;;5030306;28;20036;-60
2022/04/14 12:11:47;;;;;;;89.68;13.20;;;20.20;70.40;;;;;;5048898;28;20275;-60
2022/04/14 12:14:14;;;;;;;102.97;13.88;;;20.20;70.10;;;;;;5068228;28;20032;-61
2022/04/14 12:16:50;;;;;;;106.93;13.65;;;20.30;69.90;;;;;;5056790;28;20492;-60
2022/04/14 12:19:16;;;;;;;127.88;15.57;;;20.40;69.80;;;;;;5069793;28;20033;-63
2022/04/14 12:21:41;;;;;;;138.50;17.13;;;20.40;69.50;;;;;;5044315;28;20342;-60
2022/04/14 12:24:07;;;;;;;128.48;16.00;;;20.50;69.60;;;;;;5051391;28;20040;-61
2022/04/14 12:26:36;;;;;;;129.77;14.98;;;20.60;69.40;;;;;;5058817;28;20035;-61
2022/04/14 12:29:02;;;;;;;125.15;16.52;;;20.60;69.20;;;;;;5033125;28;20123;-61
2022/04/14 12:31:29;;;;;;;111.32;15.20;;;20.70;69.00;;;;;;5076075;28;20032;-61
2022/04/14 12:33:58;;;;;;;93.15;14.95;;;20.80;68.60;;;;;;5065801;28;20034;-61
2022/04/14 12:36:37;;;;;;;103.78;15.20;;;20.90;68.30;;;;;;5038168;28;20443;-60